sensor_id;sensor_type;location;lat;lon;timestamp;temperature;humidity
3308;DHT22;1666;48.898;9.182;2022-11-20T00:02:22;4.50;56.00
3308;DHT22;1666;48.898;9.182;2022-11-20T00:04:51;4.60;56.30
3308;DHT22;1666;48.898;9.182;2022-11-20T00:07:21;4.60;56.50
3308;DHT22;1666;48.898;9.182;2022-11-20T00:09:51;4.70;56.80
3308;DHT22;1666;48.898;9.182;2022-11-20T00:12:23;4.90;57.60
3308;DHT22;1666;48.898;9.182;2022-11-20T00:14:53;5.00;57.60
3308;DHT22;1666;48.898;9.182;2022-11-20T00:17:23;4.90;57.00
3308;DHT22;1666;48.898;9.182;2022-11-20T00:19:53;5.00;57.40
3308;DHT22;1666;48.898;9.182;2022-11-20T00:22:23;5.00;57.40
3308;DHT22;1666;48.898;9.182;2022-11-20T00:24:53;5.00;57.40
3308;DHT22;1666;48.898;9.182;2022-11-20T00:27:26;5.00;57.60
3308;DHT22;1666;48.898;9.182;2022-11-20T00:29:56;4.90;57.50
3308;DHT22;1666;48.898;9.182;2022-11-20T00:32:26;4.90;57.80
3308;DHT22;1666;48.898;9.182;2022-11-20T00:34:56;4.90;57.90
3308;DHT22;1666;48.898;9.182;2022-11-20T00:37:26;4.70;55.80
3308;DHT22;1666;48.898;9.182;2022-11-20T00:39:56;4.70;56.40
3308;DHT22;1666;48.898;9.182;2022-11-20T00:42:28;4.70;57.80
3308;DHT22;1666;48.898;9.182;2022-11-20T00:44:59;4.60;56.00
3308;DHT22;1666;48.898;9.182;2022-11-20T00:47:29;4.70;57.70
3308;DHT22;1666;48.898;9.182;2022-11-20T00:49:59;4.70;57.80
3308;DHT22;1666;48.898;9.182;2022-11-20T00:52:29;4.70;57.90
3308;DHT22;1666;48.898;9.182;2022-11-20T00:54:59;4.80;58.10
3308;DHT22;1666;48.898;9.182;2022-11-20T00:57:31;4.80;58.00
3308;DHT22;1666;48.898;9.182;2022-11-20T01:00:01;4.80;58.00
3308;DHT22;1666;48.898;9.182;2022-11-20T01:02:32;4.90;58.10
3308;DHT22;1666;48.898;9.182;2022-11-20T01:05:01;4.90;58.20
3308;DHT22;1666;48.898;9.182;2022-11-20T01:07:32;5.00;58.30
3308;DHT22;1666;48.898;9.182;2022-11-20T01:10:02;4.90;58.10
3308;DHT22;1666;48.898;9.182;2022-11-20T01:12:35;4.90;58.20
3308;DHT22;1666;48.898;9.182;2022-11-20T01:15:05;4.90;58.20
3308;DHT22;1666;48.898;9.182;2022-11-20T01:17:35;5.00;58.30
3308;DHT22;1666;48.898;9.182;2022-11-20T01:20:06;4.90;58.20
3308;DHT22;1666;48.898;9.182;2022-11-20T01:22:36;4.90;58.20
3308;DHT22;1666;48.898;9.182;2022-11-20T01:25:07;4.90;58.20
3308;DHT22;1666;48.898;9.182;2022-11-20T01:27:39;5.00;58.30
3308;DHT22;1666;48.898;9.182;2022-11-20T01:30:10;5.00;58.40
3308;DHT22;1666;48.898;9.182;2022-11-20T01:32:40;5.10;58.50
3308;DHT22;1666;48.898;9.182;2022-11-20T01:35:10;5.20;58.50
3308;DHT22;1666;48.898;9.182;2022-11-20T01:37:40;5.10;58.30
3308;DHT22;1666;48.898;9.182;2022-11-20T01:40:11;5.10;58.30
3308;DHT22;1666;48.898;9.182;2022-11-20T01:42:53;5.10;58.30
3308;DHT22;1666;48.898;9.182;2022-11-20T01:46:03;5.10;58.30
3308;DHT22;1666;48.898;9.182;2022-11-20T01:48:36;5.10;58.30
3308;DHT22;1666;48.898;9.182;2022-11-20T01:51:13;5.10;58.30
3308;DHT22;1666;48.898;9.182;2022-11-20T01:53:45;5.10;58.30
3308;DHT22;1666;48.898;9.182;2022-11-20T01:56:15;5.20;58.40
3308;DHT22;1666;48.898;9.182;2022-11-20T01:58:51;5.20;58.30
3308;DHT22;1666;48.898;9.182;2022-11-20T02:01:22;5.20;58.30
3308;DHT22;1666;48.898;9.182;2022-11-20T02:03:53;5.20;58.40
3308;DHT22;1666;48.898;9.182;2022-11-20T02:06:25;5.30;58.40
3308;DHT22;1666;48.898;9.182;2022-11-20T02:08:55;5.20;57.90
3308;DHT22;1666;48.898;9.182;2022-11-20T02:11:25;5.20;57.70
3308;DHT22;1666;48.898;9.182;2022-11-20T02:13:58;5.30;57.90
3308;DHT22;1666;48.898;9.182;2022-11-20T02:16:28;5.30;57.50
3308;DHT22;1666;48.898;9.182;2022-11-20T02:19:01;5.30;57.30
3308;DHT22;1666;48.898;9.182;2022-11-20T02:21:35;5.30;57.20
3308;DHT22;1666;48.898;9.182;2022-11-20T02:24:12;5.30;56.10
3308;DHT22;1666;48.898;9.182;2022-11-20T02:26:46;5.30;55.40
3308;DHT22;1666;48.898;9.182;2022-11-20T02:29:19;5.30;56.40
3308;DHT22;1666;48.898;9.182;2022-11-20T02:31:54;5.40;55.70
3308;DHT22;1666;48.898;9.182;2022-11-20T02:34:24;5.40;55.60
3308;DHT22;1666;48.898;9.182;2022-11-20T02:36:55;5.50;55.30
3308;DHT22;1666;48.898;9.182;2022-11-20T02:39:28;5.50;54.70
3308;DHT22;1666;48.898;9.182;2022-11-20T02:42:01;5.40;53.70
3308;DHT22;1666;48.898;9.182;2022-11-20T02:44:30;5.50;54.30
3308;DHT22;1666;48.898;9.182;2022-11-20T02:47:00;5.50;53.50
3308;DHT22;1666;48.898;9.182;2022-11-20T02:49:30;5.50;52.40
3308;DHT22;1666;48.898;9.182;2022-11-20T02:52:00;5.60;51.90
3308;DHT22;1666;48.898;9.182;2022-11-20T02:54:33;5.60;50.80
3308;DHT22;1666;48.898;9.182;2022-11-20T02:57:03;5.60;50.80
3308;DHT22;1666;48.898;9.182;2022-11-20T02:59:33;5.60;50.80
3308;DHT22;1666;48.898;9.182;2022-11-20T03:02:03;5.60;50.80
3308;DHT22;1666;48.898;9.182;2022-11-20T03:04:33;5.60;50.60
3308;DHT22;1666;48.898;9.182;2022-11-20T03:07:03;5.60;50.00
3308;DHT22;1666;48.898;9.182;2022-11-20T03:09:35;5.60;48.70
3308;DHT22;1666;48.898;9.182;2022-11-20T03:12:06;5.60;46.90
3308;DHT22;1666;48.898;9.182;2022-11-20T03:14:35;5.70;46.90
3308;DHT22;1666;48.898;9.182;2022-11-20T03:17:05;5.70;44.40
3308;DHT22;1666;48.898;9.182;2022-11-20T03:19:36;5.70;43.60
3308;DHT22;1666;48.898;9.182;2022-11-20T03:22:06;5.70;43.40
3308;DHT22;1666;48.898;9.182;2022-11-20T03:24:38;5.70;41.80
3308;DHT22;1666;48.898;9.182;2022-11-20T03:27:08;5.70;41.90
3308;DHT22;1666;48.898;9.182;2022-11-20T03:29:38;5.70;40.50
3308;DHT22;1666;48.898;9.182;2022-11-20T03:32:08;5.60;40.50
3308;DHT22;1666;48.898;9.182;2022-11-20T03:34:37;5.70;41.10
3308;DHT22;1666;48.898;9.182;2022-11-20T03:37:07;5.70;41.20
3308;DHT22;1666;48.898;9.182;2022-11-20T03:39:40;5.70;41.60
3308;DHT22;1666;48.898;9.182;2022-11-20T03:42:09;5.70;41.20
3308;DHT22;1666;48.898;9.182;2022-11-20T03:45:00;5.70;41.10
3308;DHT22;1666;48.898;9.182;2022-11-20T03:47:30;5.70;41.10
3308;DHT22;1666;48.898;9.182;2022-11-20T03:49:59;5.70;40.60
3308;DHT22;1666;48.898;9.182;2022-11-20T03:52:29;5.70;39.50
3308;DHT22;1666;48.898;9.182;2022-11-20T03:55:02;5.70;39.90
3308;DHT22;1666;48.898;9.182;2022-11-20T03:57:32;5.70;39.30
3308;DHT22;1666;48.898;9.182;2022-11-20T04:00:03;5.70;38.60
3308;DHT22;1666;48.898;9.182;2022-11-20T04:02:33;5.70;37.80
3308;DHT22;1666;48.898;9.182;2022-11-20T04:05:03;5.70;36.20
3308;DHT22;1666;48.898;9.182;2022-11-20T04:07:34;5.70;35.40
3308;DHT22;1666;48.898;9.182;2022-11-20T04:10:07;5.80;35.30
3308;DHT22;1666;48.898;9.182;2022-11-20T04:12:37;5.70;31.60
3308;DHT22;1666;48.898;9.182;2022-11-20T04:15:08;5.70;32.60
3308;DHT22;1666;48.898;9.182;2022-11-20T04:17:38;5.70;32.90
3308;DHT22;1666;48.898;9.182;2022-11-20T04:20:08;5.70;32.70
3308;DHT22;1666;48.898;9.182;2022-11-20T04:22:38;5.70;33.30
3308;DHT22;1666;48.898;9.182;2022-11-20T04:25:11;5.70;33.50
3308;DHT22;1666;48.898;9.182;2022-11-20T04:27:41;5.70;33.30
3308;DHT22;1666;48.898;9.182;2022-11-20T04:30:12;5.60;34.00
3308;DHT22;1666;48.898;9.182;2022-11-20T04:32:42;5.60;34.30
3308;DHT22;1666;48.898;9.182;2022-11-20T04:35:12;5.60;33.50
3308;DHT22;1666;48.898;9.182;2022-11-20T04:37:41;5.60;34.90
3308;DHT22;1666;48.898;9.182;2022-11-20T04:40:14;5.50;34.60
3308;DHT22;1666;48.898;9.182;2022-11-20T04:42:44;5.50;34.50
3308;DHT22;1666;48.898;9.182;2022-11-20T04:45:14;5.60;34.40
3308;DHT22;1666;48.898;9.182;2022-11-20T04:47:44;5.60;34.30
3308;DHT22;1666;48.898;9.182;2022-11-20T04:50:14;5.60;34.40
3308;DHT22;1666;48.898;9.182;2022-11-20T04:52:44;5.60;35.20
3308;DHT22;1666;48.898;9.182;2022-11-20T04:55:16;5.60;35.70
3308;DHT22;1666;48.898;9.182;2022-11-20T04:57:49;5.60;35.60
3308;DHT22;1666;48.898;9.182;2022-11-20T05:00:20;5.60;35.20
3308;DHT22;1666;48.898;9.182;2022-11-20T05:02:50;5.60;34.50
3308;DHT22;1666;48.898;9.182;2022-11-20T05:05:19;5.60;34.30
3308;DHT22;1666;48.898;9.182;2022-11-20T05:07:49;5.60;32.60
3308;DHT22;1666;48.898;9.182;2022-11-20T05:10:22;5.60;32.90
3308;DHT22;1666;48.898;9.182;2022-11-20T05:12:51;5.60;31.90
3308;DHT22;1666;48.898;9.182;2022-11-20T05:15:21;5.60;31.40
3308;DHT22;1666;48.898;9.182;2022-11-20T05:17:52;5.60;32.10
3308;DHT22;1666;48.898;9.182;2022-11-20T05:20:22;5.70;32.90
3308;DHT22;1666;48.898;9.182;2022-11-20T05:22:52;5.70;33.30
3308;DHT22;1666;48.898;9.182;2022-11-20T05:25:24;5.60;32.80
3308;DHT22;1666;48.898;9.182;2022-11-20T05:27:54;5.60;32.30
3308;DHT22;1666;48.898;9.182;2022-11-20T05:30:24;5.60;33.10
3308;DHT22;1666;48.898;9.182;2022-11-20T05:32:54;5.60;34.20
3308;DHT22;1666;48.898;9.182;2022-11-20T05:35:24;5.60;34.40
3308;DHT22;1666;48.898;9.182;2022-11-20T05:37:54;5.60;35.50
3308;DHT22;1666;48.898;9.182;2022-11-20T05:40:26;5.60;36.40
3308;DHT22;1666;48.898;9.182;2022-11-20T05:42:56;5.60;36.60
3308;DHT22;1666;48.898;9.182;2022-11-20T05:45:26;5.60;37.20
3308;DHT22;1666;48.898;9.182;2022-11-20T05:47:58;5.60;36.90
3308;DHT22;1666;48.898;9.182;2022-11-20T05:50:28;5.60;36.70
3308;DHT22;1666;48.898;9.182;2022-11-20T05:52:58;5.60;37.20
3308;DHT22;1666;48.898;9.182;2022-11-20T05:55:31;5.70;35.80
3308;DHT22;1666;48.898;9.182;2022-11-20T05:58:01;5.70;34.40
3308;DHT22;1666;48.898;9.182;2022-11-20T06:00:30;5.70;34.20
3308;DHT22;1666;48.898;9.182;2022-11-20T06:03:00;5.80;32.20
3308;DHT22;1666;48.898;9.182;2022-11-20T06:05:30;5.80;30.80
3308;DHT22;1666;48.898;9.182;2022-11-20T06:08:00;5.80;29.60
3308;DHT22;1666;48.898;9.182;2022-11-20T06:10:33;5.80;28.80
3308;DHT22;1666;48.898;9.182;2022-11-20T06:13:02;5.80;28.70
3308;DHT22;1666;48.898;9.182;2022-11-20T06:15:32;5.90;29.10
3308;DHT22;1666;48.898;9.182;2022-11-20T06:18:02;5.80;28.40
3308;DHT22;1666;48.898;9.182;2022-11-20T06:20:32;5.80;28.90
3308;DHT22;1666;48.898;9.182;2022-11-20T06:23:07;5.80;29.50
3308;DHT22;1666;48.898;9.182;2022-11-20T06:25:42;5.80;29.20
3308;DHT22;1666;48.898;9.182;2022-11-20T06:28:11;5.80;28.50
3308;DHT22;1666;48.898;9.182;2022-11-20T06:30:44;5.90;29.60
3308;DHT22;1666;48.898;9.182;2022-11-20T06:33:15;5.80;28.10
3308;DHT22;1666;48.898;9.182;2022-11-20T06:35:44;5.90;27.00
3308;DHT22;1666;48.898;9.182;2022-11-20T06:38:14;5.90;27.00
3308;DHT22;1666;48.898;9.182;2022-11-20T06:40:46;5.90;27.50
3308;DHT22;1666;48.898;9.182;2022-11-20T06:43:16;5.90;27.00
3308;DHT22;1666;48.898;9.182;2022-11-20T06:45:46;5.90;27.00
3308;DHT22;1666;48.898;9.182;2022-11-20T06:48:21;5.90;27.00
3308;DHT22;1666;48.898;9.182;2022-11-20T06:50:51;5.90;27.00
3308;DHT22;1666;48.898;9.182;2022-11-20T06:53:21;5.90;27.00
3308;DHT22;1666;48.898;9.182;2022-11-20T06:55:56;5.90;27.00
3308;DHT22;1666;48.898;9.182;2022-11-20T06:58:28;5.90;27.00
3308;DHT22;1666;48.898;9.182;2022-11-20T07:00:58;6.00;27.00
3308;DHT22;1666;48.898;9.182;2022-11-20T07:03:31;6.00;27.00
3308;DHT22;1666;48.898;9.182;2022-11-20T07:06:02;6.00;27.00
3308;DHT22;1666;48.898;9.182;2022-11-20T07:08:32;6.00;27.00
3308;DHT22;1666;48.898;9.182;2022-11-20T07:11:06;6.00;26.10
3308;DHT22;1666;48.898;9.182;2022-11-20T07:13:36;6.00;26.40
3308;DHT22;1666;48.898;9.182;2022-11-20T07:16:08;6.00;26.70
3308;DHT22;1666;48.898;9.182;2022-11-20T07:18:38;6.00;27.00
3308;DHT22;1666;48.898;9.182;2022-11-20T07:21:14;6.10;27.10
3308;DHT22;1666;48.898;9.182;2022-11-20T07:23:44;6.20;27.10
3308;DHT22;1666;48.898;9.182;2022-11-20T07:26:17;6.20;25.90
3308;DHT22;1666;48.898;9.182;2022-11-20T07:28:46;6.20;25.90
3308;DHT22;1666;48.898;9.182;2022-11-20T07:31:16;6.30;26.20
3308;DHT22;1666;48.898;9.182;2022-11-20T07:33:46;6.30;26.70
3308;DHT22;1666;48.898;9.182;2022-11-20T07:36:16;6.30;26.30
3308;DHT22;1666;48.898;9.182;2022-11-20T07:38:46;6.30;26.50
3308;DHT22;1666;48.898;9.182;2022-11-20T07:41:18;6.30;27.40
3308;DHT22;1666;48.898;9.182;2022-11-20T07:43:48;6.30;27.40
3308;DHT22;1666;48.898;9.182;2022-11-20T07:46:17;6.30;28.30
3308;DHT22;1666;48.898;9.182;2022-11-20T07:48:47;6.30;28.10
3308;DHT22;1666;48.898;9.182;2022-11-20T07:51:17;6.30;29.10
3308;DHT22;1666;48.898;9.182;2022-11-20T07:53:50;6.40;29.00
3308;DHT22;1666;48.898;9.182;2022-11-20T07:56:22;6.40;29.70
3308;DHT22;1666;48.898;9.182;2022-11-20T07:58:52;6.40;29.60
3308;DHT22;1666;48.898;9.182;2022-11-20T08:01:22;6.40;28.50
3308;DHT22;1666;48.898;9.182;2022-11-20T08:03:55;6.50;28.30
3308;DHT22;1666;48.898;9.182;2022-11-20T08:06:25;6.50;27.90
3308;DHT22;1666;48.898;9.182;2022-11-20T08:08:55;6.50;27.90
3308;DHT22;1666;48.898;9.182;2022-11-20T08:11:27;6.60;28.20
3308;DHT22;1666;48.898;9.182;2022-11-20T08:14:09;6.60;27.40
3308;DHT22;1666;48.898;9.182;2022-11-20T08:16:44;6.70;27.50
3308;DHT22;1666;48.898;9.182;2022-11-20T08:19:15;6.70;26.70
3308;DHT22;1666;48.898;9.182;2022-11-20T08:21:46;6.90;26.70
3308;DHT22;1666;48.898;9.182;2022-11-20T08:24:16;7.00;25.60
3308;DHT22;1666;48.898;9.182;2022-11-20T08:26:48;7.00;24.90
3308;DHT22;1666;48.898;9.182;2022-11-20T08:29:18;7.00;24.30
3308;DHT22;1666;48.898;9.182;2022-11-20T08:31:49;7.00;22.60
3308;DHT22;1666;48.898;9.182;2022-11-20T08:34:19;7.10;22.90
3308;DHT22;1666;48.898;9.182;2022-11-20T08:36:49;7.10;21.00
3308;DHT22;1666;48.898;9.182;2022-11-20T08:39:18;7.10;20.20
3308;DHT22;1666;48.898;9.182;2022-11-20T08:41:51;7.20;19.50
3308;DHT22;1666;48.898;9.182;2022-11-20T08:44:21;7.20;20.00
3308;DHT22;1666;48.898;9.182;2022-11-20T08:46:51;7.20;21.10
3308;DHT22;1666;48.898;9.182;2022-11-20T08:49:21;7.20;22.60
3308;DHT22;1666;48.898;9.182;2022-11-20T08:51:50;7.20;21.00
3308;DHT22;1666;48.898;9.182;2022-11-20T08:54:22;7.20;21.00
3308;DHT22;1666;48.898;9.182;2022-11-20T08:56:54;7.20;19.70
3308;DHT22;1666;48.898;9.182;2022-11-20T08:59:24;7.20;20.90
3308;DHT22;1666;48.898;9.182;2022-11-20T09:02:14;7.20;21.00
3308;DHT22;1666;48.898;9.182;2022-11-20T09:04:44;7.20;20.20
3308;DHT22;1666;48.898;9.182;2022-11-20T09:07:13;7.30;20.00
3308;DHT22;1666;48.898;9.182;2022-11-20T09:09:43;7.30;19.50
3308;DHT22;1666;48.898;9.182;2022-11-20T09:12:36;7.30;19.00
3308;DHT22;1666;48.898;9.182;2022-11-20T09:15:07;7.20;19.70
3308;DHT22;1666;48.898;9.182;2022-11-20T09:17:38;7.20;21.00
3308;DHT22;1666;48.898;9.182;2022-11-20T09:20:08;7.20;21.10
3308;DHT22;1666;48.898;9.182;2022-11-20T09:22:39;7.30;21.20
3308;DHT22;1666;48.898;9.182;2022-11-20T09:25:09;7.30;19.80
3308;DHT22;1666;48.898;9.182;2022-11-20T09:27:41;7.30;20.80
3308;DHT22;1666;48.898;9.182;2022-11-20T09:30:14;7.30;21.10
3308;DHT22;1666;48.898;9.182;2022-11-20T09:32:44;7.30;19.70
3308;DHT22;1666;48.898;9.182;2022-11-20T09:35:14;7.30;21.10
3308;DHT22;1666;48.898;9.182;2022-11-20T09:37:45;7.30;21.60
3308;DHT22;1666;48.898;9.182;2022-11-20T09:40:19;7.30;21.00
3308;DHT22;1666;48.898;9.182;2022-11-20T09:42:57;7.30;21.10
3308;DHT22;1666;48.898;9.182;2022-11-20T09:45:43;7.40;21.10
3308;DHT22;1666;48.898;9.182;2022-11-20T09:48:32;7.40;21.10
3308;DHT22;1666;48.898;9.182;2022-11-20T09:51:13;7.50;20.50
3308;DHT22;1666;48.898;9.182;2022-11-20T09:53:55;7.50;19.80
3308;DHT22;1666;48.898;9.182;2022-11-20T09:56:29;7.50;20.30
3308;DHT22;1666;48.898;9.182;2022-11-20T09:59:04;7.50;19.60
3308;DHT22;1666;48.898;9.182;2022-11-20T10:01:36;7.50;20.00
3308;DHT22;1666;48.898;9.182;2022-11-20T10:04:10;7.50;19.70
3308;DHT22;1666;48.898;9.182;2022-11-20T10:06:49;7.60;20.90
3308;DHT22;1666;48.898;9.182;2022-11-20T10:09:50;7.60;20.30
3308;DHT22;1666;48.898;9.182;2022-11-20T10:12:27;7.60;19.90
3308;DHT22;1666;48.898;9.182;2022-11-20T10:15:10;7.50;20.20
3308;DHT22;1666;48.898;9.182;2022-11-20T10:18:02;7.60;21.30
3308;DHT22;1666;48.898;9.182;2022-11-20T10:20:43;7.40;21.90
3308;DHT22;1666;48.898;9.182;2022-11-20T10:23:39;7.40;22.70
3308;DHT22;1666;48.898;9.182;2022-11-20T10:26:17;7.40;23.70
3308;DHT22;1666;48.898;9.182;2022-11-20T10:29:07;7.40;26.00
3308;DHT22;1666;48.898;9.182;2022-11-20T10:31:41;7.30;25.70
3308;DHT22;1666;48.898;9.182;2022-11-20T10:34:19;7.30;25.60
3308;DHT22;1666;48.898;9.182;2022-11-20T10:36:54;7.40;26.40
3308;DHT22;1666;48.898;9.182;2022-11-20T10:39:31;7.50;25.60
3308;DHT22;1666;48.898;9.182;2022-11-20T10:42:08;7.50;24.20
3308;DHT22;1666;48.898;9.182;2022-11-20T10:44:46;7.40;20.60
3308;DHT22;1666;48.898;9.182;2022-11-20T10:47:35;7.40;20.90
3308;DHT22;1666;48.898;9.182;2022-11-20T10:50:10;7.40;21.10
3308;DHT22;1666;48.898;9.182;2022-11-20T10:52:58;7.30;22.70
3308;DHT22;1666;48.898;9.182;2022-11-20T10:55:40;7.20;22.60
3308;DHT22;1666;48.898;9.182;2022-11-20T10:58:18;7.30;24.30
3308;DHT22;1666;48.898;9.182;2022-11-20T11:00:52;7.20;22.40
3308;DHT22;1666;48.898;9.182;2022-11-20T11:03:27;7.20;24.80
3308;DHT22;1666;48.898;9.182;2022-11-20T11:06:02;7.20;25.60
3308;DHT22;1666;48.898;9.182;2022-11-20T11:08:35;7.20;27.00
3308;DHT22;1666;48.898;9.182;2022-11-20T11:11:18;7.10;27.70
3308;DHT22;1666;48.898;9.182;2022-11-20T11:13:50;7.20;28.70
3308;DHT22;1666;48.898;9.182;2022-11-20T11:16:21;7.20;29.00
3308;DHT22;1666;48.898;9.182;2022-11-20T11:19:04;7.30;28.80
3308;DHT22;1666;48.898;9.182;2022-11-20T11:21:34;7.40;29.30
3308;DHT22;1666;48.898;9.182;2022-11-20T11:24:20;7.50;28.70
3308;DHT22;1666;48.898;9.182;2022-11-20T11:27:12;7.60;28.70
3308;DHT22;1666;48.898;9.182;2022-11-20T11:29:45;7.70;27.10
3308;DHT22;1666;48.898;9.182;2022-11-20T11:32:17;7.90;27.20
3308;DHT22;1666;48.898;9.182;2022-11-20T11:35:02;8.10;25.50
3308;DHT22;1666;48.898;9.182;2022-11-20T11:37:34;8.30;22.50
3308;DHT22;1666;48.898;9.182;2022-11-20T11:40:06;8.60;21.90
3308;DHT22;1666;48.898;9.182;2022-11-20T11:42:56;8.70;19.50
3308;DHT22;1666;48.898;9.182;2022-11-20T11:45:26;8.70;13.70
3308;DHT22;1666;48.898;9.182;2022-11-20T11:47:55;8.70;11.10
3308;DHT22;1666;48.898;9.182;2022-11-20T11:50:29;8.60;8.90
3308;DHT22;1666;48.898;9.182;2022-11-20T11:53:08;8.70;10.50
3308;DHT22;1666;48.898;9.182;2022-11-20T11:55:43;8.30;6.70
3308;DHT22;1666;48.898;9.182;2022-11-20T11:58:24;8.30;6.60
3308;DHT22;1666;48.898;9.182;2022-11-20T12:01:03;8.30;5.40
3308;DHT22;1666;48.898;9.182;2022-11-20T12:03:38;8.30;6.20
3308;DHT22;1666;48.898;9.182;2022-11-20T12:06:14;8.40;4.70
3308;DHT22;1666;48.898;9.182;2022-11-20T12:08:48;8.60;4.90
3308;DHT22;1666;48.898;9.182;2022-11-20T12:11:24;8.60;2.40
3308;DHT22;1666;48.898;9.182;2022-11-20T12:14:03;8.80;1.00
3308;DHT22;1666;48.898;9.182;2022-11-20T12:16:36;8.90;1.00
3308;DHT22;1666;48.898;9.182;2022-11-20T12:19:09;8.90;1.00
3308;DHT22;1666;48.898;9.182;2022-11-20T12:21:52;8.70;1.00
3308;DHT22;1666;48.898;9.182;2022-11-20T12:24:44;8.80;1.00
3308;DHT22;1666;48.898;9.182;2022-11-20T12:27:49;8.70;1.00
3308;DHT22;1666;48.898;9.182;2022-11-20T12:30:22;8.90;1.00
3308;DHT22;1666;48.898;9.182;2022-11-20T12:33:18;8.90;1.00
3308;DHT22;1666;48.898;9.182;2022-11-20T12:39:02;9.30;1.00
3308;DHT22;1666;48.898;9.182;2022-11-20T12:42:05;9.20;1.00
3308;DHT22;1666;48.898;9.182;2022-11-20T12:47:54;9.40;1.00
3308;DHT22;1666;48.898;9.182;2022-11-20T12:50:32;9.20;1.00
3308;DHT22;1666;48.898;9.182;2022-11-20T12:53:31;9.30;1.00
3308;DHT22;1666;48.898;9.182;2022-11-20T12:56:15;9.30;1.00
3308;DHT22;1666;48.898;9.182;2022-11-20T12:58:49;9.30;1.00
3308;DHT22;1666;48.898;9.182;2022-11-20T13:01:26;9.20;1.00
3308;DHT22;1666;48.898;9.182;2022-11-20T13:04:19;9.20;1.00
3308;DHT22;1666;48.898;9.182;2022-11-20T13:06:56;9.30;1.00
3308;DHT22;1666;48.898;9.182;2022-11-20T13:09:26;9.30;1.00
3308;DHT22;1666;48.898;9.182;2022-11-20T13:12:04;9.30;1.00
3308;DHT22;1666;48.898;9.182;2022-11-20T13:14:39;9.40;1.00
3308;DHT22;1666;48.898;9.182;2022-11-20T13:17:13;9.10;1.00
3308;DHT22;1666;48.898;9.182;2022-11-20T13:19:50;9.00;1.00
3308;DHT22;1666;48.898;9.182;2022-11-20T13:22:25;9.10;1.00
3308;DHT22;1666;48.898;9.182;2022-11-20T13:24:55;9.10;1.00
3308;DHT22;1666;48.898;9.182;2022-11-20T13:27:28;9.10;1.00
3308;DHT22;1666;48.898;9.182;2022-11-20T13:30:11;9.30;1.00
3308;DHT22;1666;48.898;9.182;2022-11-20T13:32:54;9.00;1.00
3308;DHT22;1666;48.898;9.182;2022-11-20T13:35:29;9.10;1.00
3308;DHT22;1666;48.898;9.182;2022-11-20T13:38:02;9.00;1.00
3308;DHT22;1666;48.898;9.182;2022-11-20T13:40:32;9.00;1.00
3308;DHT22;1666;48.898;9.182;2022-11-20T13:43:11;9.10;1.00
3308;DHT22;1666;48.898;9.182;2022-11-20T13:45:54;9.10;1.00
3308;DHT22;1666;48.898;9.182;2022-11-20T13:48:27;9.10;1.00
3308;DHT22;1666;48.898;9.182;2022-11-20T13:51:11;9.00;1.00
3308;DHT22;1666;48.898;9.182;2022-11-20T13:53:58;8.90;1.00
3308;DHT22;1666;48.898;9.182;2022-11-20T13:56:40;8.90;1.00
3308;DHT22;1666;48.898;9.182;2022-11-20T13:59:28;9.00;1.00
3308;DHT22;1666;48.898;9.182;2022-11-20T14:02:00;9.00;1.00
3308;DHT22;1666;48.898;9.182;2022-11-20T14:04:33;8.90;1.00
3308;DHT22;1666;48.898;9.182;2022-11-20T14:07:05;8.90;1.00
3308;DHT22;1666;48.898;9.182;2022-11-20T14:09:36;8.90;1.00
3308;DHT22;1666;48.898;9.182;2022-11-20T14:12:15;8.70;1.00
3308;DHT22;1666;48.898;9.182;2022-11-20T14:14:53;8.70;1.00
3308;DHT22;1666;48.898;9.182;2022-11-20T14:17:29;8.60;1.00
3308;DHT22;1666;48.898;9.182;2022-11-20T14:20:02;8.60;1.00
3308;DHT22;1666;48.898;9.182;2022-11-20T14:22:32;8.60;1.00
3308;DHT22;1666;48.898;9.182;2022-11-20T14:25:05;8.50;1.00
3308;DHT22;1666;48.898;9.182;2022-11-20T14:27:37;8.50;1.00
3308;DHT22;1666;48.898;9.182;2022-11-20T14:30:16;8.40;1.00
3308;DHT22;1666;48.898;9.182;2022-11-20T14:32:48;8.30;1.00
3308;DHT22;1666;48.898;9.182;2022-11-20T14:35:20;8.30;1.00
3308;DHT22;1666;48.898;9.182;2022-11-20T14:37:51;8.20;1.00
3308;DHT22;1666;48.898;9.182;2022-11-20T14:40:26;8.20;1.00
3308;DHT22;1666;48.898;9.182;2022-11-20T14:42:58;8.10;1.00
3308;DHT22;1666;48.898;9.182;2022-11-20T14:45:31;8.00;1.00
3308;DHT22;1666;48.898;9.182;2022-11-20T14:48:01;8.00;1.00
3308;DHT22;1666;48.898;9.182;2022-11-20T14:50:31;8.00;1.00
3308;DHT22;1666;48.898;9.182;2022-11-20T14:53:02;7.90;1.00
3308;DHT22;1666;48.898;9.182;2022-11-20T14:55:33;7.90;1.00
3308;DHT22;1666;48.898;9.182;2022-11-20T14:58:05;7.80;1.00
3308;DHT22;1666;48.898;9.182;2022-11-20T15:00:38;7.80;1.00
3308;DHT22;1666;48.898;9.182;2022-11-20T15:03:15;7.70;1.00
3308;DHT22;1666;48.898;9.182;2022-11-20T15:05:46;7.60;1.00
3308;DHT22;1666;48.898;9.182;2022-11-20T15:08:17;7.60;1.00
3308;DHT22;1666;48.898;9.182;2022-11-20T15:10:48;7.50;1.00
3308;DHT22;1666;48.898;9.182;2022-11-20T15:13:25;7.40;1.00
3308;DHT22;1666;48.898;9.182;2022-11-20T15:15:59;7.30;1.00
3308;DHT22;1666;48.898;9.182;2022-11-20T15:18:32;7.30;1.00
3308;DHT22;1666;48.898;9.182;2022-11-20T15:21:11;7.20;1.00
3308;DHT22;1666;48.898;9.182;2022-11-20T15:23:41;7.10;1.00
3308;DHT22;1666;48.898;9.182;2022-11-20T15:26:18;7.10;1.00
3308;DHT22;1666;48.898;9.182;2022-11-20T15:28:50;7.10;1.00
3308;DHT22;1666;48.898;9.182;2022-11-20T15:31:23;7.00;1.00
3308;DHT22;1666;48.898;9.182;2022-11-20T15:33:53;7.00;1.00
3308;DHT22;1666;48.898;9.182;2022-11-20T15:36:23;6.90;1.00
3308;DHT22;1666;48.898;9.182;2022-11-20T15:38:52;6.80;2.50
3308;DHT22;1666;48.898;9.182;2022-11-20T15:41:22;6.70;3.40
3308;DHT22;1666;48.898;9.182;2022-11-20T15:43:52;6.70;2.70
3308;DHT22;1666;48.898;9.182;2022-11-20T15:46:28;6.70;3.70
3308;DHT22;1666;48.898;9.182;2022-11-20T15:49:00;6.70;4.50
3308;DHT22;1666;48.898;9.182;2022-11-20T15:51:31;6.70;4.60
3308;DHT22;1666;48.898;9.182;2022-11-20T15:54:09;6.70;4.40
3308;DHT22;1666;48.898;9.182;2022-11-20T15:56:40;6.70;4.40
3308;DHT22;1666;48.898;9.182;2022-11-20T15:59:10;6.60;4.90
3308;DHT22;1666;48.898;9.182;2022-11-20T16:01:44;6.60;5.60
3308;DHT22;1666;48.898;9.182;2022-11-20T16:04:15;6.60;5.30
3308;DHT22;1666;48.898;9.182;2022-11-20T16:06:45;6.70;4.10
3308;DHT22;1666;48.898;9.182;2022-11-20T16:09:15;6.60;5.60
3308;DHT22;1666;48.898;9.182;2022-11-20T16:11:45;6.60;6.00
3308;DHT22;1666;48.898;9.182;2022-11-20T16:14:15;6.60;6.30
3308;DHT22;1666;48.898;9.182;2022-11-20T16:17:00;6.50;5.90
3308;DHT22;1666;48.898;9.182;2022-11-20T16:19:30;6.50;6.30
3308;DHT22;1666;48.898;9.182;2022-11-20T16:22:00;6.50;6.40
3308;DHT22;1666;48.898;9.182;2022-11-20T16:24:30;6.60;6.30
3308;DHT22;1666;48.898;9.182;2022-11-20T16:27:00;6.50;6.30
3308;DHT22;1666;48.898;9.182;2022-11-20T16:29:30;6.50;6.40
3308;DHT22;1666;48.898;9.182;2022-11-20T16:32:02;6.60;6.40
3308;DHT22;1666;48.898;9.182;2022-11-20T16:34:32;6.60;6.40
3308;DHT22;1666;48.898;9.182;2022-11-20T16:37:02;6.60;6.80
3308;DHT22;1666;48.898;9.182;2022-11-20T16:39:32;6.70;6.40
3308;DHT22;1666;48.898;9.182;2022-11-20T16:42:03;6.70;5.90
3308;DHT22;1666;48.898;9.182;2022-11-20T16:44:34;6.70;6.40
3308;DHT22;1666;48.898;9.182;2022-11-20T16:47:06;6.70;5.60
3308;DHT22;1666;48.898;9.182;2022-11-20T16:49:36;6.70;5.20
3308;DHT22;1666;48.898;9.182;2022-11-20T16:52:06;6.70;5.60
3308;DHT22;1666;48.898;9.182;2022-11-20T16:54:36;6.70;5.80
3308;DHT22;1666;48.898;9.182;2022-11-20T16:57:06;6.70;5.30
3308;DHT22;1666;48.898;9.182;2022-11-20T16:59:36;6.80;5.20
3308;DHT22;1666;48.898;9.182;2022-11-20T17:02:09;6.70;6.40
3308;DHT22;1666;48.898;9.182;2022-11-20T17:04:39;6.80;6.30
3308;DHT22;1666;48.898;9.182;2022-11-20T17:07:08;6.80;5.80
3308;DHT22;1666;48.898;9.182;2022-11-20T17:09:38;6.80;5.30